X  Zatvori METAR Podaci o vazduhoplovstvu     LYNI Nis Airport
Temperatura
3°C Temperatura
3°C Tačka Rose
100% Vlaga



Vetar
2 MPH
3 KM/H
1 M/S
2 KTS



230°
JZ
Trenutna situacija

Pretežno oblačno Pretežno oblačno
Vazdušni pritisak 1028.92 (hPa) - 30.38 (inHg)
Vidljivost 5 (Milja) - 8 (km)
Aerodrom
Aerodromski kod. LYNI

Lokacija: Nis Airport
Udaljenost: 63 (mi)

Metar:
LYNI 270330Z 23002KT 8000 BKN013 03/03 Q1029 NOSIG

Vreme: 27-11-2022 04:30 CET